sensor_id;sensor_type;location;lat;lon;timestamp;P1;durP1;ratioP1;P2;durP2;ratioP2
68921;SDS011;55959;51.244;5.724;2022-12-07T00:01:39;7.77;;;6.13;;
68921;SDS011;55959;51.244;5.724;2022-12-07T00:04:08;7.53;;;6.43;;
68921;SDS011;55959;51.244;5.724;2022-12-07T00:06:38;6.80;;;6.20;;
68921;SDS011;55959;51.244;5.724;2022-12-07T00:09:11;7.90;;;6.50;;
68921;SDS011;55959;51.244;5.724;2022-12-07T00:11:43;8.43;;;6.43;;
68921;SDS011;55959;51.244;5.724;2022-12-07T00:14:14;9.10;;;6.57;;
68921;SDS011;55959;51.244;5.724;2022-12-07T00:16:42;7.33;;;6.10;;
68921;SDS011;55959;51.244;5.724;2022-12-07T00:19:09;6.67;;;6.07;;
68921;SDS011;55959;51.244;5.724;2022-12-07T00:21:37;6.40;;;5.80;;
68921;SDS011;55959;51.244;5.724;2022-12-07T00:24:04;7.03;;;6.33;;
68921;SDS011;55959;51.244;5.724;2022-12-07T00:26:34;7.00;;;6.07;;
68921;SDS011;55959;51.244;5.724;2022-12-07T00:29:16;7.13;;;6.17;;
68921;SDS011;55959;51.244;5.724;2022-12-07T00:31:44;7.27;;;6.57;;
68921;SDS011;55959;51.244;5.724;2022-12-07T00:34:14;7.30;;;6.53;;
68921;SDS011;55959;51.244;5.724;2022-12-07T00:36:46;6.13;;;5.53;;
68921;SDS011;55959;51.244;5.724;2022-12-07T00:39:12;5.87;;;5.27;;
68921;SDS011;55959;51.244;5.724;2022-12-07T00:41:37;6.60;;;6.00;;
68921;SDS011;55959;51.244;5.724;2022-12-07T00:44:03;7.03;;;5.70;;
68921;SDS011;55959;51.244;5.724;2022-12-07T00:46:29;6.90;;;6.07;;
68921;SDS011;55959;51.244;5.724;2022-12-07T00:48:55;7.00;;;5.93;;
68921;SDS011;55959;51.244;5.724;2022-12-07T00:51:22;7.67;;;6.10;;
68921;SDS011;55959;51.244;5.724;2022-12-07T00:53:49;8.57;;;5.53;;
68921;SDS011;55959;51.244;5.724;2022-12-07T00:56:19;7.70;;;6.30;;
68921;SDS011;55959;51.244;5.724;2022-12-07T00:58:54;6.87;;;5.90;;
68921;SDS011;55959;51.244;5.724;2022-12-07T01:01:26;8.07;;;6.23;;
68921;SDS011;55959;51.244;5.724;2022-12-07T01:03:54;6.37;;;5.73;;
68921;SDS011;55959;51.244;5.724;2022-12-07T01:06:21;6.37;;;5.70;;
68921;SDS011;55959;51.244;5.724;2022-12-07T01:08:51;7.00;;;5.70;;
68921;SDS011;55959;51.244;5.724;2022-12-07T01:11:20;6.77;;;6.07;;
68921;SDS011;55959;51.244;5.724;2022-12-07T01:13:52;7.13;;;6.43;;
68921;SDS011;55959;51.244;5.724;2022-12-07T01:16:21;7.47;;;5.30;;
68921;SDS011;55959;51.244;5.724;2022-12-07T01:18:49;6.40;;;5.80;;
68921;SDS011;55959;51.244;5.724;2022-12-07T01:21:19;6.40;;;5.80;;
68921;SDS011;55959;51.244;5.724;2022-12-07T01:23:48;5.70;;;5.20;;
68921;SDS011;55959;51.244;5.724;2022-12-07T01:26:16;7.30;;;6.50;;
68921;SDS011;55959;51.244;5.724;2022-12-07T01:28:45;5.93;;;5.30;;
68921;SDS011;55959;51.244;5.724;2022-12-07T01:31:19;7.80;;;6.37;;
68921;SDS011;55959;51.244;5.724;2022-12-07T01:33:48;6.17;;;5.57;;
68921;SDS011;55959;51.244;5.724;2022-12-07T01:36:18;6.27;;;5.63;;
68921;SDS011;55959;51.244;5.724;2022-12-07T01:38:57;6.83;;;6.13;;
68921;SDS011;55959;51.244;5.724;2022-12-07T01:41:26;6.73;;;6.03;;
68921;SDS011;55959;51.244;5.724;2022-12-07T01:46:45;6.53;;;5.83;;
68921;SDS011;55959;51.244;5.724;2022-12-07T01:49:18;7.70;;;6.23;;
68921;SDS011;55959;51.244;5.724;2022-12-07T01:55:10;7.57;;;6.23;;
68921;SDS011;55959;51.244;5.724;2022-12-07T01:57:47;7.57;;;6.30;;
68921;SDS011;55959;51.244;5.724;2022-12-07T02:00:16;7.60;;;6.23;;
68921;SDS011;55959;51.244;5.724;2022-12-07T02:02:44;6.40;;;5.73;;
68921;SDS011;55959;51.244;5.724;2022-12-07T02:05:21;6.70;;;6.00;;
68921;SDS011;55959;51.244;5.724;2022-12-07T02:07:49;7.57;;;6.77;;
68921;SDS011;55959;51.244;5.724;2022-12-07T02:10:19;6.97;;;6.17;;
68921;SDS011;55959;51.244;5.724;2022-12-07T02:21:53;6.33;;;5.73;;
68921;SDS011;55959;51.244;5.724;2022-12-07T02:30:40;7.10;;;5.70;;
68921;SDS011;55959;51.244;5.724;2022-12-07T02:33:14;7.13;;;6.20;;
68921;SDS011;55959;51.244;5.724;2022-12-07T02:36:12;6.73;;;5.93;;
68921;SDS011;55959;51.244;5.724;2022-12-07T02:38:45;6.80;;;6.10;;
68921;SDS011;55959;51.244;5.724;2022-12-07T02:44:16;7.90;;;7.10;;
68921;SDS011;55959;51.244;5.724;2022-12-07T02:46:53;8.23;;;5.97;;
68921;SDS011;55959;51.244;5.724;2022-12-07T02:49:26;7.07;;;6.07;;
68921;SDS011;55959;51.244;5.724;2022-12-07T02:51:53;6.50;;;5.77;;
68921;SDS011;55959;51.244;5.724;2022-12-07T02:54:20;6.53;;;5.53;;
68921;SDS011;55959;51.244;5.724;2022-12-07T03:11:08;5.70;;;4.97;;
68921;SDS011;55959;51.244;5.724;2022-12-07T03:16:32;6.90;;;5.90;;
68921;SDS011;55959;51.244;5.724;2022-12-07T03:19:15;5.87;;;5.30;;
68921;SDS011;55959;51.244;5.724;2022-12-07T03:21:51;7.20;;;5.73;;
68921;SDS011;55959;51.244;5.724;2022-12-07T03:24:24;5.20;;;4.60;;
68921;SDS011;55959;51.244;5.724;2022-12-07T03:27:09;6.43;;;4.93;;
68921;SDS011;55959;51.244;5.724;2022-12-07T03:29:44;7.30;;;5.30;;
68921;SDS011;55959;51.244;5.724;2022-12-07T03:32:19;7.23;;;5.33;;
68921;SDS011;55959;51.244;5.724;2022-12-07T03:35:06;5.70;;;4.67;;
68921;SDS011;55959;51.244;5.724;2022-12-07T03:40:33;5.50;;;4.83;;
68921;SDS011;55959;51.244;5.724;2022-12-07T03:43:08;5.13;;;4.63;;
68921;SDS011;55959;51.244;5.724;2022-12-07T03:45:38;5.43;;;4.53;;
68921;SDS011;55959;51.244;5.724;2022-12-07T03:48:08;5.03;;;4.40;;
68921;SDS011;55959;51.244;5.724;2022-12-07T03:50:48;5.80;;;4.87;;
68921;SDS011;55959;51.244;5.724;2022-12-07T03:53:22;5.97;;;5.37;;
68921;SDS011;55959;51.244;5.724;2022-12-07T03:55:56;5.10;;;4.60;;
68921;SDS011;55959;51.244;5.724;2022-12-07T03:58:22;5.57;;;5.03;;
68921;SDS011;55959;51.244;5.724;2022-12-07T04:00:49;6.37;;;4.77;;
68921;SDS011;55959;51.244;5.724;2022-12-07T04:03:16;6.93;;;5.00;;
68921;SDS011;55959;51.244;5.724;2022-12-07T04:05:42;6.60;;;5.43;;
68921;SDS011;55959;51.244;5.724;2022-12-07T04:08:08;5.50;;;5.00;;
68921;SDS011;55959;51.244;5.724;2022-12-07T04:10:34;5.87;;;5.37;;
68921;SDS011;55959;51.244;5.724;2022-12-07T04:13:00;5.30;;;4.40;;
68921;SDS011;55959;51.244;5.724;2022-12-07T04:15:26;5.63;;;4.87;;
68921;SDS011;55959;51.244;5.724;2022-12-07T04:17:52;5.90;;;4.60;;
68921;SDS011;55959;51.244;5.724;2022-12-07T04:20:18;6.67;;;4.70;;
68921;SDS011;55959;51.244;5.724;2022-12-07T04:22:44;5.63;;;4.67;;
68921;SDS011;55959;51.244;5.724;2022-12-07T04:25:10;5.73;;;4.93;;
68921;SDS011;55959;51.244;5.724;2022-12-07T04:27:36;6.03;;;4.73;;
68921;SDS011;55959;51.244;5.724;2022-12-07T04:30:02;4.90;;;4.37;;
68921;SDS011;55959;51.244;5.724;2022-12-07T04:32:28;5.90;;;4.80;;
68921;SDS011;55959;51.244;5.724;2022-12-07T04:34:54;5.67;;;4.70;;
68921;SDS011;55959;51.244;5.724;2022-12-07T04:37:20;6.07;;;4.77;;
68921;SDS011;55959;51.244;5.724;2022-12-07T04:39:45;4.77;;;4.20;;
68921;SDS011;55959;51.244;5.724;2022-12-07T04:42:11;4.77;;;4.37;;
68921;SDS011;55959;51.244;5.724;2022-12-07T04:44:38;6.07;;;5.17;;
68921;SDS011;55959;51.244;5.724;2022-12-07T04:47:04;4.60;;;4.20;;
68921;SDS011;55959;51.244;5.724;2022-12-07T04:49:30;4.83;;;4.10;;
68921;SDS011;55959;51.244;5.724;2022-12-07T04:51:55;5.03;;;4.27;;
68921;SDS011;55959;51.244;5.724;2022-12-07T04:54:21;6.47;;;4.27;;
68921;SDS011;55959;51.244;5.724;2022-12-07T04:56:48;5.73;;;4.47;;
68921;SDS011;55959;51.244;5.724;2022-12-07T04:59:14;4.53;;;4.13;;
68921;SDS011;55959;51.244;5.724;2022-12-07T05:01:41;4.47;;;3.97;;
68921;SDS011;55959;51.244;5.724;2022-12-07T05:04:07;5.37;;;4.37;;
68921;SDS011;55959;51.244;5.724;2022-12-07T05:06:34;4.60;;;4.20;;
68921;SDS011;55959;51.244;5.724;2022-12-07T05:09:00;5.60;;;4.33;;
68921;SDS011;55959;51.244;5.724;2022-12-07T05:11:26;8.40;;;4.67;;
68921;SDS011;55959;51.244;5.724;2022-12-07T05:14:04;5.77;;;4.30;;
68921;SDS011;55959;51.244;5.724;2022-12-07T05:16:49;5.17;;;4.37;;
68921;SDS011;55959;51.244;5.724;2022-12-07T05:19:16;5.47;;;4.80;;
68921;SDS011;55959;51.244;5.724;2022-12-07T05:21:43;5.10;;;4.37;;
68921;SDS011;55959;51.244;5.724;2022-12-07T05:24:10;4.30;;;3.90;;
68921;SDS011;55959;51.244;5.724;2022-12-07T05:26:38;5.00;;;4.40;;
68921;SDS011;55959;51.244;5.724;2022-12-07T05:29:04;6.10;;;4.93;;
68921;SDS011;55959;51.244;5.724;2022-12-07T05:31:31;5.93;;;4.37;;
68921;SDS011;55959;51.244;5.724;2022-12-07T05:33:57;4.90;;;4.40;;
68921;SDS011;55959;51.244;5.724;2022-12-07T05:36:23;6.53;;;4.50;;
68921;SDS011;55959;51.244;5.724;2022-12-07T05:38:49;4.60;;;4.20;;
68921;SDS011;55959;51.244;5.724;2022-12-07T05:41:15;6.30;;;5.13;;
68921;SDS011;55959;51.244;5.724;2022-12-07T05:44:02;6.43;;;4.77;;
68921;SDS011;55959;51.244;5.724;2022-12-07T05:46:28;6.50;;;5.23;;
68921;SDS011;55959;51.244;5.724;2022-12-07T05:48:54;9.93;;;5.70;;
68921;SDS011;55959;51.244;5.724;2022-12-07T05:51:20;6.70;;;5.60;;
68921;SDS011;55959;51.244;5.724;2022-12-07T05:53:45;7.07;;;4.87;;
68921;SDS011;55959;51.244;5.724;2022-12-07T05:56:11;6.27;;;5.13;;
68921;SDS011;55959;51.244;5.724;2022-12-07T05:58:37;6.13;;;4.67;;
68921;SDS011;55959;51.244;5.724;2022-12-07T06:01:21;6.73;;;4.80;;
68921;SDS011;55959;51.244;5.724;2022-12-07T06:03:47;8.87;;;5.67;;
68921;SDS011;55959;51.244;5.724;2022-12-07T06:06:12;6.07;;;5.00;;
68921;SDS011;55959;51.244;5.724;2022-12-07T06:08:41;6.77;;;5.80;;
68921;SDS011;55959;51.244;5.724;2022-12-07T06:11:07;5.80;;;4.90;;
68921;SDS011;55959;51.244;5.724;2022-12-07T06:13:51;7.83;;;5.60;;
68921;SDS011;55959;51.244;5.724;2022-12-07T06:16:17;6.63;;;4.87;;
68921;SDS011;55959;51.244;5.724;2022-12-07T06:18:42;4.73;;;4.23;;
68921;SDS011;55959;51.244;5.724;2022-12-07T06:21:08;5.03;;;4.47;;
68921;SDS011;55959;51.244;5.724;2022-12-07T06:23:34;5.23;;;4.30;;
68921;SDS011;55959;51.244;5.724;2022-12-07T06:25:59;5.80;;;4.13;;
68921;SDS011;55959;51.244;5.724;2022-12-07T06:28:25;5.93;;;3.87;;
68921;SDS011;55959;51.244;5.724;2022-12-07T06:31:00;5.13;;;4.03;;
68921;SDS011;55959;51.244;5.724;2022-12-07T06:33:27;4.57;;;3.73;;
68921;SDS011;55959;51.244;5.724;2022-12-07T06:35:53;5.90;;;3.93;;
68921;SDS011;55959;51.244;5.724;2022-12-07T06:38:20;4.87;;;3.80;;
68921;SDS011;55959;51.244;5.724;2022-12-07T06:40:46;5.50;;;4.23;;
68921;SDS011;55959;51.244;5.724;2022-12-07T06:43:12;4.50;;;3.87;;
68921;SDS011;55959;51.244;5.724;2022-12-07T06:45:37;5.37;;;3.97;;
68921;SDS011;55959;51.244;5.724;2022-12-07T06:48:03;5.70;;;3.50;;
68921;SDS011;55959;51.244;5.724;2022-12-07T06:50:29;4.30;;;3.70;;
68921;SDS011;55959;51.244;5.724;2022-12-07T06:52:55;5.40;;;3.23;;
68921;SDS011;55959;51.244;5.724;2022-12-07T06:55:20;5.53;;;3.40;;
68921;SDS011;55959;51.244;5.724;2022-12-07T06:57:46;4.43;;;3.67;;
68921;SDS011;55959;51.244;5.724;2022-12-07T07:00:12;4.10;;;3.20;;
68921;SDS011;55959;51.244;5.724;2022-12-07T07:02:38;4.33;;;3.50;;
68921;SDS011;55959;51.244;5.724;2022-12-07T07:05:04;3.53;;;2.70;;
68921;SDS011;55959;51.244;5.724;2022-12-07T07:07:30;5.43;;;3.50;;
68921;SDS011;55959;51.244;5.724;2022-12-07T07:09:56;4.03;;;3.30;;
68921;SDS011;55959;51.244;5.724;2022-12-07T07:12:21;4.60;;;3.57;;
68921;SDS011;55959;51.244;5.724;2022-12-07T07:14:47;5.60;;;3.30;;
68921;SDS011;55959;51.244;5.724;2022-12-07T07:17:13;4.23;;;3.03;;
68921;SDS011;55959;51.244;5.724;2022-12-07T07:19:38;5.07;;;3.30;;
68921;SDS011;55959;51.244;5.724;2022-12-07T07:22:04;4.57;;;3.33;;
68921;SDS011;55959;51.244;5.724;2022-12-07T07:24:30;5.17;;;3.70;;
68921;SDS011;55959;51.244;5.724;2022-12-07T07:26:56;6.03;;;4.03;;
68921;SDS011;55959;51.244;5.724;2022-12-07T07:29:21;5.27;;;4.50;;
68921;SDS011;55959;51.244;5.724;2022-12-07T07:31:47;5.63;;;3.93;;
68921;SDS011;55959;51.244;5.724;2022-12-07T07:34:13;6.77;;;4.30;;
68921;SDS011;55959;51.244;5.724;2022-12-07T07:36:39;5.33;;;4.00;;
68921;SDS011;55959;51.244;5.724;2022-12-07T07:39:04;5.70;;;3.97;;
68921;SDS011;55959;51.244;5.724;2022-12-07T07:41:30;7.43;;;4.63;;
68921;SDS011;55959;51.244;5.724;2022-12-07T07:43:56;5.43;;;4.90;;
68921;SDS011;55959;51.244;5.724;2022-12-07T07:46:22;6.70;;;4.60;;
68921;SDS011;55959;51.244;5.724;2022-12-07T07:48:48;5.43;;;4.93;;
68921;SDS011;55959;51.244;5.724;2022-12-07T07:51:14;5.43;;;4.67;;
68921;SDS011;55959;51.244;5.724;2022-12-07T07:53:39;4.87;;;4.27;;
68921;SDS011;55959;51.244;5.724;2022-12-07T07:56:05;5.77;;;5.03;;
68921;SDS011;55959;51.244;5.724;2022-12-07T07:58:31;6.00;;;5.40;;
68921;SDS011;55959;51.244;5.724;2022-12-07T08:00:56;8.43;;;6.03;;
68921;SDS011;55959;51.244;5.724;2022-12-07T08:03:28;7.57;;;6.50;;
68921;SDS011;55959;51.244;5.724;2022-12-07T08:05:54;7.90;;;6.60;;
68921;SDS011;55959;51.244;5.724;2022-12-07T08:08:20;7.63;;;6.83;;
68921;SDS011;55959;51.244;5.724;2022-12-07T08:10:45;7.97;;;7.00;;
68921;SDS011;55959;51.244;5.724;2022-12-07T08:13:11;9.53;;;8.53;;
68921;SDS011;55959;51.244;5.724;2022-12-07T08:15:40;10.20;;;8.47;;
68921;SDS011;55959;51.244;5.724;2022-12-07T08:18:09;9.43;;;8.50;;
68921;SDS011;55959;51.244;5.724;2022-12-07T08:20:36;9.70;;;8.80;;
68921;SDS011;55959;51.244;5.724;2022-12-07T08:23:03;10.53;;;8.60;;
68921;SDS011;55959;51.244;5.724;2022-12-07T08:25:29;10.50;;;7.67;;
68921;SDS011;55959;51.244;5.724;2022-12-07T08:27:55;10.37;;;8.03;;
68921;SDS011;55959;51.244;5.724;2022-12-07T08:30:20;9.93;;;8.37;;
68921;SDS011;55959;51.244;5.724;2022-12-07T08:32:47;9.53;;;8.40;;
68921;SDS011;55959;51.244;5.724;2022-12-07T08:35:13;9.73;;;8.67;;
68921;SDS011;55959;51.244;5.724;2022-12-07T08:37:40;10.13;;;7.77;;
68921;SDS011;55959;51.244;5.724;2022-12-07T08:40:06;10.23;;;9.00;;
68921;SDS011;55959;51.244;5.724;2022-12-07T08:42:34;11.17;;;9.33;;
68921;SDS011;55959;51.244;5.724;2022-12-07T08:45:05;13.77;;;9.50;;
68921;SDS011;55959;51.244;5.724;2022-12-07T08:47:34;13.67;;;10.43;;
68921;SDS011;55959;51.244;5.724;2022-12-07T08:50:04;11.77;;;9.63;;
68921;SDS011;55959;51.244;5.724;2022-12-07T08:52:33;14.97;;;12.37;;
68921;SDS011;55959;51.244;5.724;2022-12-07T08:55:00;12.50;;;10.77;;
68921;SDS011;55959;51.244;5.724;2022-12-07T08:57:28;14.27;;;10.97;;
68921;SDS011;55959;51.244;5.724;2022-12-07T08:59:55;13.23;;;10.90;;
68921;SDS011;55959;51.244;5.724;2022-12-07T09:02:21;12.30;;;10.43;;
68921;SDS011;55959;51.244;5.724;2022-12-07T09:04:46;11.93;;;10.30;;
68921;SDS011;55959;51.244;5.724;2022-12-07T09:07:12;14.23;;;10.47;;
68921;SDS011;55959;51.244;5.724;2022-12-07T09:09:38;13.97;;;10.80;;
68921;SDS011;55959;51.244;5.724;2022-12-07T09:12:03;15.27;;;11.30;;
68921;SDS011;55959;51.244;5.724;2022-12-07T09:14:29;11.53;;;9.80;;
68921;SDS011;55959;51.244;5.724;2022-12-07T09:16:56;11.57;;;10.37;;
68921;SDS011;55959;51.244;5.724;2022-12-07T09:19:32;14.13;;;9.77;;
68921;SDS011;55959;51.244;5.724;2022-12-07T09:21:57;12.23;;;9.73;;
68921;SDS011;55959;51.244;5.724;2022-12-07T09:24:23;10.87;;;8.80;;
68921;SDS011;55959;51.244;5.724;2022-12-07T09:26:49;11.37;;;9.00;;
68921;SDS011;55959;51.244;5.724;2022-12-07T09:29:14;11.57;;;9.07;;
68921;SDS011;55959;51.244;5.724;2022-12-07T09:31:40;12.67;;;8.73;;
68921;SDS011;55959;51.244;5.724;2022-12-07T09:34:06;10.37;;;9.27;;
68921;SDS011;55959;51.244;5.724;2022-12-07T09:36:32;11.07;;;9.10;;
68921;SDS011;55959;51.244;5.724;2022-12-07T09:38:58;11.10;;;8.40;;
68921;SDS011;55959;51.244;5.724;2022-12-07T09:41:24;9.57;;;8.50;;
68921;SDS011;55959;51.244;5.724;2022-12-07T09:43:53;8.80;;;7.77;;
68921;SDS011;55959;51.244;5.724;2022-12-07T09:46:36;9.47;;;7.50;;
68921;SDS011;55959;51.244;5.724;2022-12-07T09:49:08;9.27;;;8.20;;
68921;SDS011;55959;51.244;5.724;2022-12-07T09:51:43;8.93;;;6.93;;
68921;SDS011;55959;51.244;5.724;2022-12-07T09:54:13;9.23;;;7.57;;
68921;SDS011;55959;51.244;5.724;2022-12-07T09:56:41;10.23;;;6.80;;
68921;SDS011;55959;51.244;5.724;2022-12-07T09:59:09;9.17;;;7.00;;
68921;SDS011;55959;51.244;5.724;2022-12-07T10:01:43;9.10;;;7.97;;
68921;SDS011;55959;51.244;5.724;2022-12-07T10:06:46;8.97;;;7.33;;
68921;SDS011;55959;51.244;5.724;2022-12-07T10:09:13;8.23;;;5.97;;
68921;SDS011;55959;51.244;5.724;2022-12-07T10:11:59;8.47;;;6.23;;
68921;SDS011;55959;51.244;5.724;2022-12-07T10:14:28;10.27;;;6.20;;
68921;SDS011;55959;51.244;5.724;2022-12-07T10:16:56;7.70;;;6.00;;
68921;SDS011;55959;51.244;5.724;2022-12-07T10:19:23;6.23;;;5.60;;
68921;SDS011;55959;51.244;5.724;2022-12-07T10:24:39;8.80;;;5.67;;
68921;SDS011;55959;51.244;5.724;2022-12-07T10:27:30;8.43;;;5.40;;
68921;SDS011;55959;51.244;5.724;2022-12-07T10:29:57;8.77;;;5.73;;
68921;SDS011;55959;51.244;5.724;2022-12-07T10:32:30;7.87;;;5.83;;
68921;SDS011;55959;51.244;5.724;2022-12-07T10:35:23;8.93;;;5.43;;
68921;SDS011;55959;51.244;5.724;2022-12-07T10:37:54;11.13;;;6.00;;
68921;SDS011;55959;51.244;5.724;2022-12-07T10:49:10;7.93;;;5.63;;
68921;SDS011;55959;51.244;5.724;2022-12-07T10:54:56;8.67;;;5.43;;
68921;SDS011;55959;51.244;5.724;2022-12-07T10:58:00;7.60;;;4.90;;
68921;SDS011;55959;51.244;5.724;2022-12-07T11:00:59;6.03;;;5.20;;
68921;SDS011;55959;51.244;5.724;2022-12-07T11:03:48;7.63;;;5.10;;
68921;SDS011;55959;51.244;5.724;2022-12-07T11:06:30;5.43;;;4.60;;
68921;SDS011;55959;51.244;5.724;2022-12-07T11:11:58;5.90;;;4.37;;
68921;SDS011;55959;51.244;5.724;2022-12-07T11:14:53;5.63;;;3.83;;
68921;SDS011;55959;51.244;5.724;2022-12-07T11:23:30;5.87;;;3.77;;
68921;SDS011;55959;51.244;5.724;2022-12-07T11:26:17;7.47;;;3.77;;
68921;SDS011;55959;51.244;5.724;2022-12-07T11:38:38;6.73;;;3.60;;
68921;SDS011;55959;51.244;5.724;2022-12-07T11:41:20;5.23;;;3.20;;
68921;SDS011;55959;51.244;5.724;2022-12-07T11:43:53;5.03;;;3.40;;
68921;SDS011;55959;51.244;5.724;2022-12-07T11:46:43;6.03;;;3.30;;
68921;SDS011;55959;51.244;5.724;2022-12-07T11:52:01;6.03;;;2.90;;
68921;SDS011;55959;51.244;5.724;2022-12-07T11:54:30;7.87;;;3.10;;
68921;SDS011;55959;51.244;5.724;2022-12-07T11:57:07;4.87;;;2.60;;
68921;SDS011;55959;51.244;5.724;2022-12-07T11:59:45;6.03;;;3.20;;
68921;SDS011;55959;51.244;5.724;2022-12-07T12:02:22;5.33;;;2.30;;
68921;SDS011;55959;51.244;5.724;2022-12-07T12:07:37;3.57;;;1.80;;
68921;SDS011;55959;51.244;5.724;2022-12-07T12:10:05;3.97;;;2.20;;
68921;SDS011;55959;51.244;5.724;2022-12-07T12:12:52;3.73;;;2.13;;
68921;SDS011;55959;51.244;5.724;2022-12-07T12:21:36;5.70;;;2.57;;
68921;SDS011;55959;51.244;5.724;2022-12-07T12:24:04;6.17;;;2.23;;
68921;SDS011;55959;51.244;5.724;2022-12-07T12:26:47;5.00;;;2.23;;
68921;SDS011;55959;51.244;5.724;2022-12-07T12:29:34;5.17;;;2.17;;
68921;SDS011;55959;51.244;5.724;2022-12-07T12:32:05;3.77;;;2.00;;
68921;SDS011;55959;51.244;5.724;2022-12-07T12:37:38;6.37;;;2.10;;
68921;SDS011;55959;51.244;5.724;2022-12-07T12:45:18;6.30;;;2.40;;
68921;SDS011;55959;51.244;5.724;2022-12-07T12:47:54;4.67;;;2.20;;
68921;SDS011;55959;51.244;5.724;2022-12-07T12:53:00;6.60;;;3.20;;
68921;SDS011;55959;51.244;5.724;2022-12-07T12:58:33;4.17;;;2.67;;
68921;SDS011;55959;51.244;5.724;2022-12-07T13:01:31;6.70;;;2.90;;
68921;SDS011;55959;51.244;5.724;2022-12-07T13:04:01;3.93;;;2.40;;
68921;SDS011;55959;51.244;5.724;2022-12-07T13:06:34;3.73;;;1.87;;
68921;SDS011;55959;51.244;5.724;2022-12-07T13:09:02;4.27;;;2.17;;
68921;SDS011;55959;51.244;5.724;2022-12-07T13:11:36;3.47;;;2.03;;
68921;SDS011;55959;51.244;5.724;2022-12-07T13:17:54;3.70;;;2.70;;
68921;SDS011;55959;51.244;5.724;2022-12-07T13:28:26;3.67;;;2.67;;
68921;SDS011;55959;51.244;5.724;2022-12-07T13:33:45;2.33;;;2.10;;
68921;SDS011;55959;51.244;5.724;2022-12-07T13:36:26;3.33;;;2.70;;
68921;SDS011;55959;51.244;5.724;2022-12-07T13:39:11;4.20;;;2.57;;
68921;SDS011;55959;51.244;5.724;2022-12-07T13:41:41;6.63;;;2.67;;
68921;SDS011;55959;51.244;5.724;2022-12-07T13:44:09;4.97;;;3.00;;
68921;SDS011;55959;51.244;5.724;2022-12-07T13:49:53;2.70;;;2.30;;
68921;SDS011;55959;51.244;5.724;2022-12-07T13:52:25;3.90;;;2.70;;
68921;SDS011;55959;51.244;5.724;2022-12-07T13:57:24;5.57;;;3.10;;
68921;SDS011;55959;51.244;5.724;2022-12-07T13:59:51;4.10;;;2.73;;
68921;SDS011;55959;51.244;5.724;2022-12-07T14:02:22;4.40;;;3.30;;
68921;SDS011;55959;51.244;5.724;2022-12-07T14:05:15;4.77;;;3.10;;
68921;SDS011;55959;51.244;5.724;2022-12-07T14:07:55;5.27;;;3.87;;
68921;SDS011;55959;51.244;5.724;2022-12-07T14:10:30;5.60;;;3.03;;
68921;SDS011;55959;51.244;5.724;2022-12-07T14:13:03;3.87;;;2.80;;
68921;SDS011;55959;51.244;5.724;2022-12-07T14:15:56;3.97;;;2.70;;
68921;SDS011;55959;51.244;5.724;2022-12-07T14:21:25;3.20;;;2.23;;
68921;SDS011;55959;51.244;5.724;2022-12-07T14:26:42;3.20;;;2.50;;
68921;SDS011;55959;51.244;5.724;2022-12-07T14:31:56;3.20;;;2.00;;
68921;SDS011;55959;51.244;5.724;2022-12-07T14:34:24;5.17;;;2.47;;
68921;SDS011;55959;51.244;5.724;2022-12-07T14:36:50;3.60;;;2.20;;
68921;SDS011;55959;51.244;5.724;2022-12-07T14:39:17;6.33;;;2.60;;
68921;SDS011;55959;51.244;5.724;2022-12-07T14:41:43;3.63;;;2.83;;
68921;SDS011;55959;51.244;5.724;2022-12-07T14:44:21;3.30;;;2.50;;
68921;SDS011;55959;51.244;5.724;2022-12-07T14:46:48;5.23;;;2.27;;
68921;SDS011;55959;51.244;5.724;2022-12-07T14:49:15;2.90;;;2.00;;
68921;SDS011;55959;51.244;5.724;2022-12-07T14:51:42;2.43;;;1.60;;
68921;SDS011;55959;51.244;5.724;2022-12-07T14:54:13;3.43;;;2.20;;
68921;SDS011;55959;51.244;5.724;2022-12-07T14:56:42;2.70;;;1.80;;
68921;SDS011;55959;51.244;5.724;2022-12-07T14:59:09;3.43;;;1.60;;
68921;SDS011;55959;51.244;5.724;2022-12-07T15:01:36;2.97;;;1.50;;
68921;SDS011;55959;51.244;5.724;2022-12-07T15:04:02;1.33;;;1.23;;
68921;SDS011;55959;51.244;5.724;2022-12-07T15:06:28;2.03;;;1.30;;
68921;SDS011;55959;51.244;5.724;2022-12-07T15:08:53;2.20;;;1.43;;
68921;SDS011;55959;51.244;5.724;2022-12-07T15:11:20;2.60;;;1.60;;
68921;SDS011;55959;51.244;5.724;2022-12-07T15:13:46;3.10;;;1.70;;
68921;SDS011;55959;51.244;5.724;2022-12-07T15:16:30;3.77;;;1.80;;
68921;SDS011;55959;51.244;5.724;2022-12-07T15:18:56;3.63;;;1.93;;
68921;SDS011;55959;51.244;5.724;2022-12-07T15:21:21;2.57;;;1.50;;
68921;SDS011;55959;51.244;5.724;2022-12-07T15:23:47;4.63;;;2.10;;
68921;SDS011;55959;51.244;5.724;2022-12-07T15:26:13;3.63;;;1.90;;
68921;SDS011;55959;51.244;5.724;2022-12-07T15:28:39;3.40;;;2.20;;
68921;SDS011;55959;51.244;5.724;2022-12-07T15:31:24;3.10;;;1.93;;
68921;SDS011;55959;51.244;5.724;2022-12-07T15:33:49;3.00;;;2.27;;
68921;SDS011;55959;51.244;5.724;2022-12-07T15:36:34;4.97;;;2.00;;
68921;SDS011;55959;51.244;5.724;2022-12-07T15:39:00;2.90;;;1.80;;
68921;SDS011;55959;51.244;5.724;2022-12-07T15:41:26;3.90;;;2.17;;
68921;SDS011;55959;51.244;5.724;2022-12-07T15:43:52;2.87;;;2.07;;
68921;SDS011;55959;51.244;5.724;2022-12-07T15:46:37;3.20;;;2.00;;
68921;SDS011;55959;51.244;5.724;2022-12-07T15:49:10;4.37;;;2.20;;
68921;SDS011;55959;51.244;5.724;2022-12-07T15:51:41;2.60;;;2.00;;
68921;SDS011;55959;51.244;5.724;2022-12-07T15:54:22;3.13;;;2.00;;
68921;SDS011;55959;51.244;5.724;2022-12-07T15:56:53;3.60;;;2.00;;
68921;SDS011;55959;51.244;5.724;2022-12-07T15:59:19;3.33;;;2.07;;
68921;SDS011;55959;51.244;5.724;2022-12-07T16:01:46;4.77;;;2.60;;
68921;SDS011;55959;51.244;5.724;2022-12-07T16:04:12;4.40;;;2.40;;
68921;SDS011;55959;51.244;5.724;2022-12-07T16:06:38;3.93;;;2.50;;
68921;SDS011;55959;51.244;5.724;2022-12-07T16:09:04;4.30;;;2.00;;
68921;SDS011;55959;51.244;5.724;2022-12-07T16:11:31;3.03;;;2.33;;
68921;SDS011;55959;51.244;5.724;2022-12-07T16:13:57;4.37;;;2.80;;
68921;SDS011;55959;51.244;5.724;2022-12-07T16:16:23;4.27;;;2.80;;
68921;SDS011;55959;51.244;5.724;2022-12-07T16:18:49;3.77;;;3.10;;
68921;SDS011;55959;51.244;5.724;2022-12-07T16:21:16;4.20;;;2.70;;
68921;SDS011;55959;51.244;5.724;2022-12-07T16:23:42;4.47;;;2.90;;
68921;SDS011;55959;51.244;5.724;2022-12-07T16:26:11;4.60;;;2.70;;
68921;SDS011;55959;51.244;5.724;2022-12-07T16:28:42;4.03;;;2.90;;
68921;SDS011;55959;51.244;5.724;2022-12-07T16:31:10;3.37;;;2.70;;
68921;SDS011;55959;51.244;5.724;2022-12-07T16:33:38;4.10;;;3.03;;
68921;SDS011;55959;51.244;5.724;2022-12-07T16:36:05;5.13;;;3.50;;
68921;SDS011;55959;51.244;5.724;2022-12-07T16:38:33;4.20;;;3.30;;
68921;SDS011;55959;51.244;5.724;2022-12-07T16:40:59;3.53;;;2.97;;
68921;SDS011;55959;51.244;5.724;2022-12-07T16:43:25;5.30;;;3.53;;
68921;SDS011;55959;51.244;5.724;2022-12-07T16:45:51;3.87;;;3.33;;
68921;SDS011;55959;51.244;5.724;2022-12-07T16:48:17;4.87;;;3.83;;
68921;SDS011;55959;51.244;5.724;2022-12-07T16:50:43;4.33;;;3.93;;
68921;SDS011;55959;51.244;5.724;2022-12-07T16:53:10;5.03;;;4.40;;
68921;SDS011;55959;51.244;5.724;2022-12-07T16:55:37;4.80;;;4.03;;
68921;SDS011;55959;51.244;5.724;2022-12-07T16:58:08;7.10;;;4.30;;
68921;SDS011;55959;51.244;5.724;2022-12-07T17:00:34;6.37;;;4.50;;
68921;SDS011;55959;51.244;5.724;2022-12-07T17:02:59;8.37;;;5.00;;
68921;SDS011;55959;51.244;5.724;2022-12-07T17:05:27;5.20;;;4.70;;
68921;SDS011;55959;51.244;5.724;2022-12-07T17:08:03;7.37;;;5.70;;
68921;SDS011;55959;51.244;5.724;2022-12-07T17:10:29;6.90;;;6.00;;
68921;SDS011;55959;51.244;5.724;2022-12-07T17:12:54;6.67;;;5.30;;
68921;SDS011;55959;51.244;5.724;2022-12-07T17:15:20;7.13;;;5.43;;
68921;SDS011;55959;51.244;5.724;2022-12-07T17:17:46;7.47;;;5.93;;